sensor_id;sensor_type;location;lat;lon;timestamp;P1;durP1;ratioP1;P2;durP2;ratioP2
33152;SDS011;19509;43.862;26.176;2022-12-18T00:01:30;1.80;;;1.80;;
33152;SDS011;19509;43.862;26.176;2022-12-18T00:04:01;1.70;;;1.70;;
33152;SDS011;19509;43.862;26.176;2022-12-18T00:06:30;1.80;;;1.80;;
33152;SDS011;19509;43.862;26.176;2022-12-18T00:08:58;1.93;;;1.93;;
33152;SDS011;19509;43.862;26.176;2022-12-18T00:11:27;2.10;;;2.10;;
33152;SDS011;19509;43.862;26.176;2022-12-18T00:13:54;1.80;;;1.80;;
33152;SDS011;19509;43.862;26.176;2022-12-18T00:16:22;1.90;;;1.90;;
33152;SDS011;19509;43.862;26.176;2022-12-18T00:18:49;1.80;;;1.80;;
33152;SDS011;19509;43.862;26.176;2022-12-18T00:21:16;1.90;;;1.90;;
33152;SDS011;19509;43.862;26.176;2022-12-18T00:23:42;1.93;;;1.93;;
33152;SDS011;19509;43.862;26.176;2022-12-18T00:26:16;1.70;;;1.70;;
33152;SDS011;19509;43.862;26.176;2022-12-18T00:28:44;2.17;;;2.17;;
33152;SDS011;19509;43.862;26.176;2022-12-18T00:31:11;2.00;;;2.00;;
33152;SDS011;19509;43.862;26.176;2022-12-18T00:33:39;2.33;;;2.33;;
33152;SDS011;19509;43.862;26.176;2022-12-18T00:36:06;2.20;;;2.20;;
33152;SDS011;19509;43.862;26.176;2022-12-18T00:38:34;2.60;;;2.60;;
33152;SDS011;19509;43.862;26.176;2022-12-18T00:41:00;2.23;;;2.23;;
33152;SDS011;19509;43.862;26.176;2022-12-18T00:43:25;2.30;;;2.30;;
33152;SDS011;19509;43.862;26.176;2022-12-18T00:45:50;2.20;;;2.20;;
33152;SDS011;19509;43.862;26.176;2022-12-18T00:48:16;2.00;;;2.00;;
33152;SDS011;19509;43.862;26.176;2022-12-18T00:50:42;2.63;;;2.63;;
33152;SDS011;19509;43.862;26.176;2022-12-18T00:53:07;2.30;;;2.30;;
33152;SDS011;19509;43.862;26.176;2022-12-18T00:55:37;2.10;;;2.10;;
33152;SDS011;19509;43.862;26.176;2022-12-18T00:58:03;2.40;;;2.40;;
33152;SDS011;19509;43.862;26.176;2022-12-18T01:00:29;2.40;;;2.40;;
33152;SDS011;19509;43.862;26.176;2022-12-18T01:02:54;2.37;;;2.37;;
33152;SDS011;19509;43.862;26.176;2022-12-18T01:05:20;2.20;;;2.20;;
33152;SDS011;19509;43.862;26.176;2022-12-18T01:07:45;2.20;;;2.20;;
33152;SDS011;19509;43.862;26.176;2022-12-18T01:10:11;2.23;;;2.23;;
33152;SDS011;19509;43.862;26.176;2022-12-18T01:12:37;2.40;;;2.40;;
33152;SDS011;19509;43.862;26.176;2022-12-18T01:15:04;2.20;;;2.20;;
33152;SDS011;19509;43.862;26.176;2022-12-18T01:17:31;2.60;;;2.60;;
33152;SDS011;19509;43.862;26.176;2022-12-18T01:19:56;2.20;;;2.20;;
33152;SDS011;19509;43.862;26.176;2022-12-18T01:22:22;2.23;;;2.23;;
33152;SDS011;19509;43.862;26.176;2022-12-18T01:24:47;2.30;;;2.30;;
33152;SDS011;19509;43.862;26.176;2022-12-18T01:27:13;2.50;;;2.50;;
33152;SDS011;19509;43.862;26.176;2022-12-18T01:29:38;2.47;;;2.37;;
33152;SDS011;19509;43.862;26.176;2022-12-18T01:32:03;2.40;;;2.40;;
33152;SDS011;19509;43.862;26.176;2022-12-18T01:34:29;2.30;;;2.30;;
33152;SDS011;19509;43.862;26.176;2022-12-18T01:36:54;2.40;;;2.40;;
33152;SDS011;19509;43.862;26.176;2022-12-18T01:39:20;2.40;;;2.40;;
33152;SDS011;19509;43.862;26.176;2022-12-18T01:41:45;2.20;;;2.20;;
33152;SDS011;19509;43.862;26.176;2022-12-18T01:47:43;2.30;;;2.30;;
33152;SDS011;19509;43.862;26.176;2022-12-18T01:53:17;2.73;;;2.63;;
33152;SDS011;19509;43.862;26.176;2022-12-18T01:55:50;2.60;;;2.60;;
33152;SDS011;19509;43.862;26.176;2022-12-18T01:58:19;2.13;;;2.13;;
33152;SDS011;19509;43.862;26.176;2022-12-18T02:00:47;2.50;;;2.50;;
33152;SDS011;19509;43.862;26.176;2022-12-18T02:03:13;2.40;;;2.40;;
33152;SDS011;19509;43.862;26.176;2022-12-18T02:05:41;2.40;;;2.40;;
33152;SDS011;19509;43.862;26.176;2022-12-18T02:13:12;2.77;;;2.00;;
33152;SDS011;19509;43.862;26.176;2022-12-18T02:15:40;2.10;;;2.10;;
33152;SDS011;19509;43.862;26.176;2022-12-18T02:18:27;2.37;;;2.37;;
33152;SDS011;19509;43.862;26.176;2022-12-18T02:26:26;2.50;;;2.50;;
33152;SDS011;19509;43.862;26.176;2022-12-18T02:28:56;2.23;;;2.23;;
33152;SDS011;19509;43.862;26.176;2022-12-18T02:31:27;2.20;;;2.20;;
33152;SDS011;19509;43.862;26.176;2022-12-18T02:33:56;2.37;;;2.37;;
33152;SDS011;19509;43.862;26.176;2022-12-18T02:36:26;2.50;;;2.50;;
33152;SDS011;19509;43.862;26.176;2022-12-18T02:38:53;2.30;;;2.30;;
33152;SDS011;19509;43.862;26.176;2022-12-18T02:41:23;2.33;;;2.33;;
33152;SDS011;19509;43.862;26.176;2022-12-18T02:43:55;2.30;;;2.30;;
33152;SDS011;19509;43.862;26.176;2022-12-18T02:49:08;2.20;;;2.20;;
33152;SDS011;19509;43.862;26.176;2022-12-18T03:00:10;2.40;;;2.40;;
33152;SDS011;19509;43.862;26.176;2022-12-18T03:02:51;2.70;;;2.70;;
33152;SDS011;19509;43.862;26.176;2022-12-18T03:05:58;2.30;;;2.30;;
33152;SDS011;19509;43.862;26.176;2022-12-18T03:08:21;2.40;;;2.40;;
33152;SDS011;19509;43.862;26.176;2022-12-18T03:10:54;2.53;;;2.53;;
33152;SDS011;19509;43.862;26.176;2022-12-18T03:13:50;2.40;;;2.40;;
33152;SDS011;19509;43.862;26.176;2022-12-18T03:16:24;2.57;;;2.57;;
33152;SDS011;19509;43.862;26.176;2022-12-18T03:18:54;3.03;;;2.93;;
33152;SDS011;19509;43.862;26.176;2022-12-18T03:21:26;2.63;;;2.63;;
33152;SDS011;19509;43.862;26.176;2022-12-18T03:23:58;2.97;;;2.97;;
33152;SDS011;19509;43.862;26.176;2022-12-18T03:26:26;2.63;;;2.63;;
33152;SDS011;19509;43.862;26.176;2022-12-18T03:28:59;2.90;;;2.90;;
33152;SDS011;19509;43.862;26.176;2022-12-18T03:31:28;2.97;;;2.97;;
33152;SDS011;19509;43.862;26.176;2022-12-18T03:34:01;2.90;;;2.90;;
33152;SDS011;19509;43.862;26.176;2022-12-18T03:36:30;2.90;;;2.90;;
33152;SDS011;19509;43.862;26.176;2022-12-18T03:38:55;2.87;;;2.87;;
33152;SDS011;19509;43.862;26.176;2022-12-18T03:41:31;2.80;;;2.80;;
33152;SDS011;19509;43.862;26.176;2022-12-18T03:49:29;2.83;;;2.83;;
33152;SDS011;19509;43.862;26.176;2022-12-18T03:52:06;2.73;;;2.73;;
33152;SDS011;19509;43.862;26.176;2022-12-18T03:54:35;2.90;;;2.90;;
33152;SDS011;19509;43.862;26.176;2022-12-18T03:57:20;2.80;;;2.80;;
33152;SDS011;19509;43.862;26.176;2022-12-18T03:59:50;3.13;;;3.10;;
33152;SDS011;19509;43.862;26.176;2022-12-18T04:02:20;2.80;;;2.80;;
33152;SDS011;19509;43.862;26.176;2022-12-18T04:04:48;3.33;;;3.23;;
33152;SDS011;19509;43.862;26.176;2022-12-18T04:07:22;3.17;;;3.07;;
33152;SDS011;19509;43.862;26.176;2022-12-18T04:09:48;2.90;;;2.90;;
33152;SDS011;19509;43.862;26.176;2022-12-18T04:12:16;3.10;;;3.00;;
33152;SDS011;19509;43.862;26.176;2022-12-18T04:14:41;3.10;;;3.03;;
33152;SDS011;19509;43.862;26.176;2022-12-18T04:17:06;2.90;;;2.90;;
33152;SDS011;19509;43.862;26.176;2022-12-18T04:19:32;3.07;;;3.07;;
33152;SDS011;19509;43.862;26.176;2022-12-18T04:21:57;3.30;;;3.20;;
33152;SDS011;19509;43.862;26.176;2022-12-18T04:24:23;3.23;;;3.23;;
33152;SDS011;19509;43.862;26.176;2022-12-18T04:26:48;3.00;;;3.00;;
33152;SDS011;19509;43.862;26.176;2022-12-18T04:29:14;3.30;;;3.30;;
33152;SDS011;19509;43.862;26.176;2022-12-18T04:31:39;2.90;;;2.90;;
33152;SDS011;19509;43.862;26.176;2022-12-18T04:34:05;3.07;;;3.07;;
33152;SDS011;19509;43.862;26.176;2022-12-18T04:36:30;3.50;;;3.40;;
33152;SDS011;19509;43.862;26.176;2022-12-18T04:38:55;2.90;;;2.90;;
33152;SDS011;19509;43.862;26.176;2022-12-18T04:41:21;3.80;;;3.70;;
33152;SDS011;19509;43.862;26.176;2022-12-18T04:43:46;3.13;;;3.13;;
33152;SDS011;19509;43.862;26.176;2022-12-18T04:46:12;3.00;;;3.00;;
33152;SDS011;19509;43.862;26.176;2022-12-18T04:48:37;3.40;;;3.30;;
33152;SDS011;19509;43.862;26.176;2022-12-18T04:51:03;3.20;;;3.20;;
33152;SDS011;19509;43.862;26.176;2022-12-18T04:53:29;3.10;;;3.10;;
33152;SDS011;19509;43.862;26.176;2022-12-18T04:56:05;3.00;;;3.00;;
33152;SDS011;19509;43.862;26.176;2022-12-18T04:58:32;3.00;;;3.00;;
33152;SDS011;19509;43.862;26.176;2022-12-18T05:00:57;3.20;;;3.10;;
33152;SDS011;19509;43.862;26.176;2022-12-18T05:03:23;3.40;;;3.30;;
33152;SDS011;19509;43.862;26.176;2022-12-18T05:05:49;3.00;;;3.00;;
33152;SDS011;19509;43.862;26.176;2022-12-18T05:08:16;3.20;;;3.10;;
33152;SDS011;19509;43.862;26.176;2022-12-18T05:10:41;3.80;;;3.70;;
33152;SDS011;19509;43.862;26.176;2022-12-18T05:13:07;3.50;;;3.40;;
33152;SDS011;19509;43.862;26.176;2022-12-18T05:15:33;3.80;;;3.70;;
33152;SDS011;19509;43.862;26.176;2022-12-18T05:17:59;3.63;;;3.53;;
33152;SDS011;19509;43.862;26.176;2022-12-18T05:20:25;3.67;;;3.57;;
33152;SDS011;19509;43.862;26.176;2022-12-18T05:22:51;3.40;;;3.30;;
33152;SDS011;19509;43.862;26.176;2022-12-18T05:25:17;4.10;;;4.00;;
33152;SDS011;19509;43.862;26.176;2022-12-18T05:27:43;3.80;;;3.70;;
33152;SDS011;19509;43.862;26.176;2022-12-18T05:30:09;4.13;;;3.90;;
33152;SDS011;19509;43.862;26.176;2022-12-18T05:32:35;3.60;;;3.50;;
33152;SDS011;19509;43.862;26.176;2022-12-18T05:35:00;3.57;;;3.47;;
33152;SDS011;19509;43.862;26.176;2022-12-18T05:37:26;3.90;;;3.80;;
33152;SDS011;19509;43.862;26.176;2022-12-18T05:39:51;3.63;;;3.53;;
33152;SDS011;19509;43.862;26.176;2022-12-18T05:42:16;3.80;;;3.70;;
33152;SDS011;19509;43.862;26.176;2022-12-18T05:44:42;3.70;;;3.60;;
33152;SDS011;19509;43.862;26.176;2022-12-18T05:47:08;3.60;;;3.50;;
33152;SDS011;19509;43.862;26.176;2022-12-18T05:49:34;4.30;;;4.20;;
33152;SDS011;19509;43.862;26.176;2022-12-18T05:51:59;4.40;;;4.30;;
33152;SDS011;19509;43.862;26.176;2022-12-18T05:54:26;3.73;;;3.63;;
33152;SDS011;19509;43.862;26.176;2022-12-18T05:56:52;3.93;;;3.83;;
33152;SDS011;19509;43.862;26.176;2022-12-18T05:59:18;3.90;;;3.80;;
33152;SDS011;19509;43.862;26.176;2022-12-18T06:01:43;3.83;;;3.73;;
33152;SDS011;19509;43.862;26.176;2022-12-18T06:04:09;3.80;;;3.70;;
33152;SDS011;19509;43.862;26.176;2022-12-18T06:06:34;4.03;;;3.93;;
33152;SDS011;19509;43.862;26.176;2022-12-18T06:09:00;4.20;;;4.10;;
33152;SDS011;19509;43.862;26.176;2022-12-18T06:11:26;3.70;;;3.60;;
33152;SDS011;19509;43.862;26.176;2022-12-18T06:13:52;3.73;;;3.63;;
33152;SDS011;19509;43.862;26.176;2022-12-18T06:16:19;4.00;;;3.90;;
33152;SDS011;19509;43.862;26.176;2022-12-18T06:18:45;3.40;;;3.30;;
33152;SDS011;19509;43.862;26.176;2022-12-18T06:21:11;3.77;;;3.67;;
33152;SDS011;19509;43.862;26.176;2022-12-18T06:23:36;3.60;;;3.50;;
33152;SDS011;19509;43.862;26.176;2022-12-18T06:26:06;3.63;;;3.53;;
33152;SDS011;19509;43.862;26.176;2022-12-18T06:28:32;3.80;;;3.70;;
33152;SDS011;19509;43.862;26.176;2022-12-18T06:30:58;3.00;;;3.00;;
33152;SDS011;19509;43.862;26.176;2022-12-18T06:33:25;3.77;;;3.67;;
33152;SDS011;19509;43.862;26.176;2022-12-18T06:35:52;3.77;;;3.67;;
33152;SDS011;19509;43.862;26.176;2022-12-18T06:38:17;4.30;;;4.20;;
33152;SDS011;19509;43.862;26.176;2022-12-18T06:40:43;3.60;;;3.50;;
33152;SDS011;19509;43.862;26.176;2022-12-18T06:43:08;3.60;;;3.50;;
33152;SDS011;19509;43.862;26.176;2022-12-18T06:45:33;3.17;;;3.17;;
33152;SDS011;19509;43.862;26.176;2022-12-18T06:47:59;3.70;;;3.60;;
33152;SDS011;19509;43.862;26.176;2022-12-18T06:50:24;3.60;;;3.50;;
33152;SDS011;19509;43.862;26.176;2022-12-18T06:52:50;3.23;;;3.23;;
33152;SDS011;19509;43.862;26.176;2022-12-18T06:55:15;3.20;;;3.10;;
33152;SDS011;19509;43.862;26.176;2022-12-18T06:57:41;3.40;;;3.30;;
33152;SDS011;19509;43.862;26.176;2022-12-18T07:00:06;3.67;;;3.57;;
33152;SDS011;19509;43.862;26.176;2022-12-18T07:02:33;3.60;;;3.50;;
33152;SDS011;19509;43.862;26.176;2022-12-18T07:04:58;3.47;;;3.47;;
33152;SDS011;19509;43.862;26.176;2022-12-18T07:07:24;3.73;;;3.63;;
33152;SDS011;19509;43.862;26.176;2022-12-18T07:09:50;3.30;;;3.20;;
33152;SDS011;19509;43.862;26.176;2022-12-18T07:12:15;3.50;;;3.40;;
33152;SDS011;19509;43.862;26.176;2022-12-18T07:14:41;3.80;;;3.70;;
33152;SDS011;19509;43.862;26.176;2022-12-18T07:17:06;3.63;;;3.53;;
33152;SDS011;19509;43.862;26.176;2022-12-18T07:19:32;3.50;;;3.50;;
33152;SDS011;19509;43.862;26.176;2022-12-18T07:21:58;3.70;;;3.60;;
33152;SDS011;19509;43.862;26.176;2022-12-18T07:24:24;3.50;;;3.43;;
33152;SDS011;19509;43.862;26.176;2022-12-18T07:26:49;4.03;;;3.93;;
33152;SDS011;19509;43.862;26.176;2022-12-18T07:29:15;4.30;;;4.07;;
33152;SDS011;19509;43.862;26.176;2022-12-18T07:31:40;3.77;;;3.67;;
33152;SDS011;19509;43.862;26.176;2022-12-18T07:34:09;3.47;;;3.37;;
33152;SDS011;19509;43.862;26.176;2022-12-18T07:36:35;3.50;;;3.40;;
33152;SDS011;19509;43.862;26.176;2022-12-18T07:39:01;4.10;;;4.00;;
33152;SDS011;19509;43.862;26.176;2022-12-18T07:41:26;3.57;;;3.50;;
33152;SDS011;19509;43.862;26.176;2022-12-18T07:43:51;3.60;;;3.50;;
33152;SDS011;19509;43.862;26.176;2022-12-18T07:46:17;4.17;;;3.83;;
33152;SDS011;19509;43.862;26.176;2022-12-18T07:48:43;5.87;;;3.70;;
33152;SDS011;19509;43.862;26.176;2022-12-18T07:51:09;3.40;;;3.30;;
33152;SDS011;19509;43.862;26.176;2022-12-18T07:53:38;3.37;;;3.30;;
33152;SDS011;19509;43.862;26.176;2022-12-18T07:56:05;3.30;;;3.23;;
33152;SDS011;19509;43.862;26.176;2022-12-18T07:58:32;3.43;;;3.33;;
33152;SDS011;19509;43.862;26.176;2022-12-18T08:01:16;3.20;;;3.20;;
33152;SDS011;19509;43.862;26.176;2022-12-18T08:03:42;3.70;;;3.47;;
33152;SDS011;19509;43.862;26.176;2022-12-18T08:06:08;3.43;;;3.37;;
33152;SDS011;19509;43.862;26.176;2022-12-18T08:08:34;3.00;;;3.00;;
33152;SDS011;19509;43.862;26.176;2022-12-18T08:11:01;3.30;;;3.27;;
33152;SDS011;19509;43.862;26.176;2022-12-18T08:13:26;3.23;;;3.23;;
33152;SDS011;19509;43.862;26.176;2022-12-18T08:15:59;3.40;;;3.30;;
33152;SDS011;19509;43.862;26.176;2022-12-18T08:18:29;3.57;;;3.47;;
33152;SDS011;19509;43.862;26.176;2022-12-18T08:20:57;3.43;;;3.33;;
33152;SDS011;19509;43.862;26.176;2022-12-18T08:23:23;3.67;;;3.57;;
33152;SDS011;19509;43.862;26.176;2022-12-18T08:25:48;3.77;;;3.67;;
33152;SDS011;19509;43.862;26.176;2022-12-18T08:28:16;3.27;;;3.17;;
33152;SDS011;19509;43.862;26.176;2022-12-18T08:30:42;3.23;;;3.23;;
33152;SDS011;19509;43.862;26.176;2022-12-18T08:33:07;3.10;;;3.10;;
33152;SDS011;19509;43.862;26.176;2022-12-18T08:35:35;3.50;;;3.40;;
33152;SDS011;19509;43.862;26.176;2022-12-18T08:38:02;3.40;;;3.30;;
33152;SDS011;19509;43.862;26.176;2022-12-18T08:40:28;3.10;;;3.10;;
33152;SDS011;19509;43.862;26.176;2022-12-18T08:42:53;3.43;;;3.33;;
33152;SDS011;19509;43.862;26.176;2022-12-18T08:45:37;3.27;;;3.20;;
33152;SDS011;19509;43.862;26.176;2022-12-18T08:48:17;3.10;;;3.10;;
33152;SDS011;19509;43.862;26.176;2022-12-18T08:50:42;2.87;;;2.87;;
33152;SDS011;19509;43.862;26.176;2022-12-18T08:53:08;3.00;;;3.00;;
33152;SDS011;19509;43.862;26.176;2022-12-18T08:55:34;3.30;;;3.30;;
33152;SDS011;19509;43.862;26.176;2022-12-18T08:57:59;3.00;;;3.00;;
33152;SDS011;19509;43.862;26.176;2022-12-18T09:00:25;3.10;;;3.10;;
33152;SDS011;19509;43.862;26.176;2022-12-18T09:02:50;3.10;;;3.00;;
33152;SDS011;19509;43.862;26.176;2022-12-18T09:05:16;2.93;;;2.93;;
33152;SDS011;19509;43.862;26.176;2022-12-18T09:07:41;3.50;;;3.40;;
33152;SDS011;19509;43.862;26.176;2022-12-18T09:10:06;3.40;;;3.37;;
33152;SDS011;19509;43.862;26.176;2022-12-18T09:12:32;3.10;;;3.10;;
33152;SDS011;19509;43.862;26.176;2022-12-18T09:14:57;3.00;;;3.00;;
33152;SDS011;19509;43.862;26.176;2022-12-18T09:17:24;3.50;;;3.40;;
33152;SDS011;19509;43.862;26.176;2022-12-18T09:19:49;3.60;;;3.50;;
33152;SDS011;19509;43.862;26.176;2022-12-18T09:22:14;3.50;;;3.40;;
33152;SDS011;19509;43.862;26.176;2022-12-18T09:24:40;3.50;;;3.50;;
33152;SDS011;19509;43.862;26.176;2022-12-18T09:27:05;3.17;;;3.17;;
33152;SDS011;19509;43.862;26.176;2022-12-18T09:29:31;2.87;;;2.87;;
33152;SDS011;19509;43.862;26.176;2022-12-18T09:31:57;3.50;;;3.40;;
33152;SDS011;19509;43.862;26.176;2022-12-18T09:34:22;3.00;;;3.00;;
33152;SDS011;19509;43.862;26.176;2022-12-18T09:36:48;3.10;;;3.00;;
33152;SDS011;19509;43.862;26.176;2022-12-18T09:39:14;3.37;;;3.27;;
33152;SDS011;19509;43.862;26.176;2022-12-18T09:41:52;3.27;;;3.10;;
33152;SDS011;19509;43.862;26.176;2022-12-18T09:44:21;2.83;;;2.83;;
33152;SDS011;19509;43.862;26.176;2022-12-18T09:47:02;4.00;;;3.10;;
33152;SDS011;19509;43.862;26.176;2022-12-18T09:49:34;2.80;;;2.70;;
33152;SDS011;19509;43.862;26.176;2022-12-18T09:52:11;3.03;;;3.03;;
33152;SDS011;19509;43.862;26.176;2022-12-18T09:54:38;3.40;;;3.30;;
33152;SDS011;19509;43.862;26.176;2022-12-18T09:57:12;3.10;;;3.10;;
33152;SDS011;19509;43.862;26.176;2022-12-18T09:59:41;3.40;;;3.30;;
33152;SDS011;19509;43.862;26.176;2022-12-18T10:02:16;3.00;;;2.90;;
33152;SDS011;19509;43.862;26.176;2022-12-18T10:04:45;3.13;;;3.03;;
33152;SDS011;19509;43.862;26.176;2022-12-18T10:07:30;2.93;;;2.93;;
33152;SDS011;19509;43.862;26.176;2022-12-18T10:21:11;3.50;;;3.40;;
33152;SDS011;19509;43.862;26.176;2022-12-18T10:23:44;3.23;;;3.13;;
33152;SDS011;19509;43.862;26.176;2022-12-18T10:26:13;3.57;;;3.47;;
33152;SDS011;19509;43.862;26.176;2022-12-18T10:28:39;3.23;;;3.23;;
33152;SDS011;19509;43.862;26.176;2022-12-18T10:31:16;3.07;;;3.07;;
33152;SDS011;19509;43.862;26.176;2022-12-18T10:33:44;3.10;;;3.00;;
33152;SDS011;19509;43.862;26.176;2022-12-18T10:36:10;3.47;;;3.37;;
33152;SDS011;19509;43.862;26.176;2022-12-18T10:38:36;3.33;;;3.23;;
33152;SDS011;19509;43.862;26.176;2022-12-18T10:41:03;2.90;;;2.90;;
33152;SDS011;19509;43.862;26.176;2022-12-18T10:44:10;3.20;;;3.20;;
33152;SDS011;19509;43.862;26.176;2022-12-18T10:46:46;3.60;;;3.50;;
33152;SDS011;19509;43.862;26.176;2022-12-18T10:54:49;3.33;;;3.23;;
33152;SDS011;19509;43.862;26.176;2022-12-18T10:59:52;3.03;;;3.00;;
33152;SDS011;19509;43.862;26.176;2022-12-18T11:02:38;3.13;;;3.13;;
33152;SDS011;19509;43.862;26.176;2022-12-18T11:05:22;3.03;;;3.03;;
33152;SDS011;19509;43.862;26.176;2022-12-18T11:07:53;2.90;;;2.90;;
33152;SDS011;19509;43.862;26.176;2022-12-18T11:10:25;3.00;;;3.00;;
33152;SDS011;19509;43.862;26.176;2022-12-18T11:13:07;3.00;;;3.00;;
33152;SDS011;19509;43.862;26.176;2022-12-18T11:15:41;3.17;;;3.07;;
33152;SDS011;19509;43.862;26.176;2022-12-18T11:18:25;3.10;;;3.10;;
33152;SDS011;19509;43.862;26.176;2022-12-18T11:21:14;2.83;;;2.83;;
33152;SDS011;19509;43.862;26.176;2022-12-18T11:23:50;3.13;;;3.13;;
33152;SDS011;19509;43.862;26.176;2022-12-18T11:26:17;2.83;;;2.83;;
33152;SDS011;19509;43.862;26.176;2022-12-18T11:28:47;2.90;;;2.90;;
33152;SDS011;19509;43.862;26.176;2022-12-18T11:31:26;2.80;;;2.80;;
33152;SDS011;19509;43.862;26.176;2022-12-18T11:34:16;2.97;;;2.97;;
33152;SDS011;19509;43.862;26.176;2022-12-18T11:36:55;2.60;;;2.60;;
33152;SDS011;19509;43.862;26.176;2022-12-18T11:39:30;2.60;;;2.60;;
33152;SDS011;19509;43.862;26.176;2022-12-18T11:42:04;3.20;;;3.10;;
33152;SDS011;19509;43.862;26.176;2022-12-18T11:44:57;3.23;;;3.13;;
33152;SDS011;19509;43.862;26.176;2022-12-18T11:47:39;3.17;;;3.17;;
33152;SDS011;19509;43.862;26.176;2022-12-18T11:50:24;3.03;;;3.03;;
33152;SDS011;19509;43.862;26.176;2022-12-18T11:52:56;2.97;;;2.97;;
33152;SDS011;19509;43.862;26.176;2022-12-18T11:55:27;2.77;;;2.77;;
33152;SDS011;19509;43.862;26.176;2022-12-18T12:00:30;3.17;;;3.17;;
33152;SDS011;19509;43.862;26.176;2022-12-18T12:08:31;3.37;;;3.27;;
33152;SDS011;19509;43.862;26.176;2022-12-18T12:11:09;3.00;;;3.00;;
33152;SDS011;19509;43.862;26.176;2022-12-18T12:14:23;3.40;;;3.30;;
33152;SDS011;19509;43.862;26.176;2022-12-18T12:16:59;5.00;;;4.90;;
33152;SDS011;19509;43.862;26.176;2022-12-18T12:22:27;4.23;;;4.13;;
33152;SDS011;19509;43.862;26.176;2022-12-18T12:25:33;3.07;;;2.97;;
33152;SDS011;19509;43.862;26.176;2022-12-18T12:28:12;2.83;;;2.83;;
33152;SDS011;19509;43.862;26.176;2022-12-18T12:34:31;3.00;;;3.00;;
33152;SDS011;19509;43.862;26.176;2022-12-18T12:36:31;2.83;;;2.83;;
33152;SDS011;19509;43.862;26.176;2022-12-18T12:39:09;3.00;;;3.00;;
33152;SDS011;19509;43.862;26.176;2022-12-18T12:41:38;3.00;;;3.00;;
33152;SDS011;19509;43.862;26.176;2022-12-18T12:44:29;2.70;;;2.70;;
33152;SDS011;19509;43.862;26.176;2022-12-18T12:46:59;2.80;;;2.80;;
33152;SDS011;19509;43.862;26.176;2022-12-18T12:49:32;2.70;;;2.70;;
33152;SDS011;19509;43.862;26.176;2022-12-18T12:52:00;3.50;;;3.40;;
33152;SDS011;19509;43.862;26.176;2022-12-18T12:54:31;2.60;;;2.60;;
33152;SDS011;19509;43.862;26.176;2022-12-18T13:02:39;2.80;;;2.80;;
33152;SDS011;19509;43.862;26.176;2022-12-18T13:07:58;2.87;;;2.87;;
33152;SDS011;19509;43.862;26.176;2022-12-18T13:12:59;3.10;;;3.10;;
33152;SDS011;19509;43.862;26.176;2022-12-18T13:18:05;2.70;;;2.70;;
33152;SDS011;19509;43.862;26.176;2022-12-18T13:20:35;3.00;;;3.00;;
33152;SDS011;19509;43.862;26.176;2022-12-18T13:29:07;2.80;;;2.80;;
33152;SDS011;19509;43.862;26.176;2022-12-18T13:31:11;3.10;;;3.10;;
33152;SDS011;19509;43.862;26.176;2022-12-18T13:34:21;3.00;;;3.00;;
33152;SDS011;19509;43.862;26.176;2022-12-18T13:36:49;3.00;;;3.00;;
33152;SDS011;19509;43.862;26.176;2022-12-18T13:44:39;2.97;;;2.97;;
33152;SDS011;19509;43.862;26.176;2022-12-18T13:47:25;2.70;;;2.70;;
33152;SDS011;19509;43.862;26.176;2022-12-18T13:50:23;2.90;;;2.90;;
33152;SDS011;19509;43.862;26.176;2022-12-18T13:52:49;3.03;;;3.03;;
33152;SDS011;19509;43.862;26.176;2022-12-18T13:55:18;3.03;;;3.00;;
33152;SDS011;19509;43.862;26.176;2022-12-18T13:57:45;3.37;;;3.27;;
33152;SDS011;19509;43.862;26.176;2022-12-18T14:00:24;3.10;;;3.10;;
33152;SDS011;19509;43.862;26.176;2022-12-18T14:02:53;3.10;;;3.10;;
33152;SDS011;19509;43.862;26.176;2022-12-18T14:05:33;2.80;;;2.80;;
33152;SDS011;19509;43.862;26.176;2022-12-18T14:08:02;3.20;;;3.20;;
33152;SDS011;19509;43.862;26.176;2022-12-18T14:10:30;3.10;;;3.10;;
33152;SDS011;19509;43.862;26.176;2022-12-18T14:12:56;2.80;;;2.80;;
33152;SDS011;19509;43.862;26.176;2022-12-18T14:18:15;3.03;;;3.03;;
33152;SDS011;19509;43.862;26.176;2022-12-18T14:21:05;3.50;;;3.40;;
33152;SDS011;19509;43.862;26.176;2022-12-18T14:23:39;2.90;;;2.90;;
33152;SDS011;19509;43.862;26.176;2022-12-18T14:28:47;3.40;;;3.30;;
33152;SDS011;19509;43.862;26.176;2022-12-18T14:31:20;3.30;;;3.20;;
33152;SDS011;19509;43.862;26.176;2022-12-18T14:33:50;3.53;;;3.43;;
33152;SDS011;19509;43.862;26.176;2022-12-18T14:36:18;3.20;;;3.10;;
33152;SDS011;19509;43.862;26.176;2022-12-18T14:38:51;3.30;;;3.20;;
33152;SDS011;19509;43.862;26.176;2022-12-18T14:41:19;3.77;;;3.67;;
33152;SDS011;19509;43.862;26.176;2022-12-18T14:43:49;3.70;;;3.60;;
33152;SDS011;19509;43.862;26.176;2022-12-18T14:49:41;3.63;;;3.53;;
33152;SDS011;19509;43.862;26.176;2022-12-18T14:52:00;3.63;;;3.53;;
33152;SDS011;19509;43.862;26.176;2022-12-18T14:54:28;3.73;;;3.63;;
33152;SDS011;19509;43.862;26.176;2022-12-18T14:59:24;3.93;;;3.83;;
33152;SDS011;19509;43.862;26.176;2022-12-18T15:04:23;3.90;;;3.80;;
33152;SDS011;19509;43.862;26.176;2022-12-18T15:06:50;4.23;;;4.13;;
33152;SDS011;19509;43.862;26.176;2022-12-18T15:09:29;4.03;;;3.93;;
33152;SDS011;19509;43.862;26.176;2022-12-18T15:11:56;4.27;;;4.17;;
33152;SDS011;19509;43.862;26.176;2022-12-18T15:16:54;4.40;;;4.30;;
33152;SDS011;19509;43.862;26.176;2022-12-18T15:19:21;4.70;;;4.60;;
33152;SDS011;19509;43.862;26.176;2022-12-18T15:21:50;4.43;;;4.33;;
33152;SDS011;19509;43.862;26.176;2022-12-18T15:24:20;4.90;;;4.70;;
33152;SDS011;19509;43.862;26.176;2022-12-18T15:26:51;4.40;;;4.30;;
33152;SDS011;19509;43.862;26.176;2022-12-18T15:29:20;4.50;;;4.40;;
33152;SDS011;19509;43.862;26.176;2022-12-18T15:34:45;3.77;;;3.67;;
33152;SDS011;19509;43.862;26.176;2022-12-18T15:37:10;3.80;;;3.70;;
33152;SDS011;19509;43.862;26.176;2022-12-18T15:39:36;4.83;;;4.73;;
33152;SDS011;19509;43.862;26.176;2022-12-18T15:42:01;4.43;;;4.33;;
33152;SDS011;19509;43.862;26.176;2022-12-18T15:44:45;4.70;;;4.60;;
33152;SDS011;19509;43.862;26.176;2022-12-18T15:47:11;4.63;;;4.53;;
33152;SDS011;19509;43.862;26.176;2022-12-18T15:49:38;5.07;;;4.87;;
33152;SDS011;19509;43.862;26.176;2022-12-18T15:52:04;4.63;;;4.53;;
33152;SDS011;19509;43.862;26.176;2022-12-18T15:54:30;4.57;;;4.47;;
33152;SDS011;19509;43.862;26.176;2022-12-18T15:57:14;4.70;;;4.60;;
33152;SDS011;19509;43.862;26.176;2022-12-18T15:59:48;4.67;;;4.47;;
33152;SDS011;19509;43.862;26.176;2022-12-18T16:02:16;4.33;;;4.23;;
33152;SDS011;19509;43.862;26.176;2022-12-18T16:04:42;4.43;;;4.33;;
33152;SDS011;19509;43.862;26.176;2022-12-18T16:07:08;4.40;;;4.30;;
33152;SDS011;19509;43.862;26.176;2022-12-18T16:09:34;3.53;;;3.43;;
33152;SDS011;19509;43.862;26.176;2022-12-18T16:11:59;3.20;;;3.10;;
33152;SDS011;19509;43.862;26.176;2022-12-18T16:14:26;2.87;;;2.83;;
33152;SDS011;19509;43.862;26.176;2022-12-18T16:16:54;3.30;;;3.20;;
33152;SDS011;19509;43.862;26.176;2022-12-18T16:19:23;2.43;;;2.43;;
33152;SDS011;19509;43.862;26.176;2022-12-18T16:21:51;2.90;;;2.80;;
33152;SDS011;19509;43.862;26.176;2022-12-18T16:24:18;3.00;;;2.90;;
33152;SDS011;19509;43.862;26.176;2022-12-18T16:26:48;2.83;;;2.83;;
33152;SDS011;19509;43.862;26.176;2022-12-18T16:29:13;3.47;;;3.37;;
33152;SDS011;19509;43.862;26.176;2022-12-18T16:31:39;3.20;;;3.10;;
33152;SDS011;19509;43.862;26.176;2022-12-18T16:34:19;3.23;;;3.13;;
33152;SDS011;19509;43.862;26.176;2022-12-18T16:36:47;3.20;;;3.10;;
33152;SDS011;19509;43.862;26.176;2022-12-18T16:39:13;3.50;;;3.40;;